Time,TemperatureF,DewpointF,PressureIn,WindDirection,WindDirectionDegrees,WindSpeedMPH,WindSpeedGustMPH,Humidity,HourlyPrecipIn,Conditions,Clouds,dailyrainin,SoftwareType,DateUTC
2013-03-01 13:12:00,38.0,34.5,30.07,SSW,201,3.0,8.0,87,0.00,,,0.07,Wunderground v.1.15,2013-03-01 19:12:00,
2013-03-01 13:14:00,38.0,34.5,30.07,SSW,193,3.0,8.0,87,0.00,,,0.07,Wunderground v.1.15,2013-03-01 19:14:00,
2013-03-01 13:15:00,37.9,34.4,30.07,SSW,201,3.0,8.0,87,0.00,,,0.07,Wunderground v.1.15,2013-03-01 19:15:00,
2013-03-01 13:20:00,37.4,34.2,30.07,SSW,208,4.0,9.0,88,0.00,,,0.07,Wunderground v.1.15,2013-03-01 19:20:00,
2013-03-01 13:26:00,37.5,33.4,30.07,South,171,4.0,8.0,85,0.00,,,0.07,Wunderground v.1.15,2013-03-01 19:26:00,
2013-03-01 13:31:00,37.9,33.8,30.07,SW,217,3.0,8.0,85,0.00,,,0.07,Wunderground v.1.15,2013-03-01 19:31:00,
2013-03-01 13:37:00,38.9,34.2,30.06,SSW,195,3.0,8.0,83,0.00,,,0.07,Wunderground v.1.15,2013-03-01 19:37:00,
2013-03-01 13:42:00,39.4,34.1,30.07,ESE,121,4.0,8.0,81,0.00,,,0.07,Wunderground v.1.15,2013-03-01 19:42:00,
2013-03-01 13:48:00,39.1,32.8,30.07,WSW,244,4.0,8.0,78,0.00,,,0.07,Wunderground v.1.15,2013-03-01 19:48:00,
2013-03-01 13:54:00,39.3,34.3,30.07,WSW,253,4.0,8.0,82,0.00,,,0.07,Wunderground v.1.15,2013-03-01 19:54:00,
2013-03-01 14:05:00,39.8,34.1,30.07,WSW,244,4.0,4.0,80,0.00,,,0.07,Wunderground v.1.15,2013-03-01 20:05:00,
2013-03-01 14:10:00,40.0,33.4,30.06,SSW,200,4.0,5.0,77,0.00,,,0.07,Wunderground v.1.15,2013-03-01 20:10:00,
2013-03-01 14:15:00,40.0,33.7,30.06,WNW,297,4.0,5.0,78,0.00,,,0.07,Wunderground v.1.15,2013-03-01 20:15:00,
2013-03-01 14:23:00,39.8,32.5,30.06,SW,227,4.0,7.0,75,0.00,,,0.07,Wunderground v.1.15,2013-03-01 20:23:00,
2013-03-01 14:29:00,39.6,33.0,30.07,SW,227,4.0,5.0,77,0.00,,,0.07,Wunderground v.1.15,2013-03-01 20:29:00,
2013-03-01 14:35:00,39.3,32.7,30.06,SW,221,4.0,4.0,77,0.00,,,0.07,Wunderground v.1.15,2013-03-01 20:35:00,
2013-03-01 14:40:00,39.0,32.7,30.06,WSW,239,4.0,6.0,78,0.00,,,0.07,Wunderground v.1.15,2013-03-01 20:40:00,
2013-03-01 14:45:00,39.1,32.8,30.06,SW,227,4.0,4.0,78,0.00,,,0.07,Wunderground v.1.15,2013-03-01 20:45:00,
2013-03-01 14:55:00,38.6,34.2,30.07,SW,223,5.0,6.0,84,0.00,,,0.07,Wunderground v.1.15,2013-03-01 20:55:00,
2013-03-01 15:00:00,37.0,33.2,30.07,WSW,241,5.0,5.0,86,0.00,,,0.07,Wunderground v.1.15,2013-03-01 21:00:00,
2013-03-01 15:06:00,36.1,33.2,30.07,SW,215,4.0,7.0,89,0.00,,,0.07,Wunderground v.1.15,2013-03-01 21:06:00,
2013-03-01 15:11:00,35.5,32.9,30.07,SSW,213,3.0,5.0,90,0.00,,,0.07,Wunderground v.1.15,2013-03-01 21:11:00,
2013-03-01 15:16:00,35.6,33.2,30.07,SW,231,3.0,5.0,91,0.00,,,0.07,Wunderground v.1.15,2013-03-01 21:16:00,
2013-03-01 15:21:00,35.9,33.5,30.07,SSW,204,3.0,3.0,91,0.00,,,0.07,Wunderground v.1.15,2013-03-01 21:21:00,
2013-03-01 15:27:00,36.1,33.2,30.07,WSW,241,3.0,4.0,89,0.00,,,0.07,Wunderground v.1.15,2013-03-01 21:27:00,
2013-03-01 15:32:00,36.2,33.3,30.07,West,263,3.0,3.0,89,0.00,,,0.07,Wunderground v.1.15,2013-03-01 21:32:00,
2013-03-01 15:52:00,37.0,33.5,30.07,WNW,285,3.0,3.0,87,0.00,,,0.07,Wunderground v.1.15,2013-03-01 21:52:00,
2013-03-01 15:58:00,37.1,33.6,30.07,West,269,3.0,4.0,87,0.00,,,0.07,Wunderground v.1.15,2013-03-01 21:58:00,
2013-03-01 16:04:00,37.0,33.2,30.07,SW,230,3.0,6.0,86,0.00,,,0.07,Wunderground v.1.15,2013-03-01 22:04:00,
2013-03-01 16:10:00,35.8,32.9,30.08,ESE,123,4.0,4.0,89,0.00,,,0.07,Wunderground v.1.15,2013-03-01 22:10:00,
2013-03-01 16:15:00,35.2,32.6,30.08,SW,233,3.0,4.0,90,0.00,,,0.07,Wunderground v.1.15,2013-03-01 22:15:00,
2013-03-01 16:21:00,35.0,32.9,30.08,SE,128,2.0,2.0,92,0.00,,,0.07,Wunderground v.1.15,2013-03-01 22:21:00,
2013-03-01 16:55:00,33.6,32.1,30.08,WSW,240,2.0,2.0,94,0.00,,,0.09,Wunderground v.1.15,2013-03-01 22:55:00,
2013-03-01 17:00:00,33.8,32.3,30.08,SW,236,2.0,2.0,94,0.00,,,0.09,Wunderground v.1.15,2013-03-01 23:00:00,
2013-03-01 17:06:00,34.0,32.5,30.08,WSW,242,2.0,2.0,94,0.00,,,0.09,Wunderground v.1.15,2013-03-01 23:06:00,
2013-03-01 17:11:00,34.2,32.7,30.08,WSW,247,2.0,4.0,94,0.00,,,0.09,Wunderground v.1.15,2013-03-01 23:11:00,
2013-03-01 17:17:00,34.4,32.9,30.08,WNW,287,3.0,6.0,94,0.00,,,0.09,Wunderground v.1.15,2013-03-01 23:17:00,
2013-03-01 17:22:00,34.5,32.7,30.09,SW,229,3.0,5.0,93,0.00,,,0.09,Wunderground v.1.15,2013-03-01 23:22:00,
2013-03-01 17:27:00,34.4,32.6,30.09,SW,232,3.0,5.0,93,0.00,,,0.09,Wunderground v.1.15,2013-03-01 23:27:00,
2013-03-01 17:33:00,34.4,32.6,30.09,WSW,237,3.0,3.0,93,0.00,,,0.09,Wunderground v.1.15,2013-03-01 23:33:00,
2013-03-01 17:38:00,34.4,32.6,30.09,SW,229,3.0,4.0,93,0.00,,,0.09,Wunderground v.1.15,2013-03-01 23:38:00,
2013-03-01 17:44:00,34.4,32.6,30.09,SW,225,3.0,4.0,93,0.00,,,0.09,Wunderground v.1.15,2013-03-01 23:44:00,
2013-03-01 17:50:00,34.4,32.6,30.09,WSW,257,3.0,3.0,93,0.00,,,0.09,Wunderground v.1.15,2013-03-01 23:50:00,
2013-03-01 17:56:00,34.4,32.6,30.09,WSW,244,2.0,6.0,93,0.00,,,0.09,Wunderground v.1.15,2013-03-01 23:56:00,
2013-03-01 18:01:00,34.4,32.6,30.09,SW,221,3.0,3.0,93,0.00,,,0.10,Wunderground v.1.15,2013-03-02 00:01:00,
2013-03-01 18:06:00,34.3,32.5,30.10,South,190,2.0,3.0,93,0.00,,,0.10,Wunderground v.1.15,2013-03-02 00:06:00,